sensor_id;sensor_type;location;lat;lon;timestamp;P1;durP1;ratioP1;P2;durP2;ratioP2
40793;SDS011;26502;51.886;15.604;2023-05-29T00:03:13;4.10;;;1.90;;
40793;SDS011;26502;51.886;15.604;2023-05-29T00:08:20;4.00;;;2.40;;
40793;SDS011;26502;51.886;15.604;2023-05-29T00:13:26;5.40;;;2.30;;
40793;SDS011;26502;51.886;15.604;2023-05-29T00:18:32;4.50;;;2.30;;
40793;SDS011;26502;51.886;15.604;2023-05-29T00:23:38;6.60;;;2.10;;
40793;SDS011;26502;51.886;15.604;2023-05-29T00:28:44;5.70;;;2.10;;
40793;SDS011;26502;51.886;15.604;2023-05-29T00:33:51;4.60;;;2.30;;
40793;SDS011;26502;51.886;15.604;2023-05-29T00:38:56;6.80;;;2.30;;
40793;SDS011;26502;51.886;15.604;2023-05-29T00:44:02;4.20;;;2.20;;
40793;SDS011;26502;51.886;15.604;2023-05-29T00:49:09;4.60;;;2.40;;
40793;SDS011;26502;51.886;15.604;2023-05-29T00:54:17;5.20;;;2.30;;
40793;SDS011;26502;51.886;15.604;2023-05-29T00:59:28;4.50;;;2.20;;
40793;SDS011;26502;51.886;15.604;2023-05-29T01:04:36;3.00;;;2.00;;
40793;SDS011;26502;51.886;15.604;2023-05-29T01:09:43;3.40;;;2.20;;
40793;SDS011;26502;51.886;15.604;2023-05-29T01:14:51;5.50;;;2.40;;
40793;SDS011;26502;51.886;15.604;2023-05-29T01:25:29;5.10;;;2.50;;
40793;SDS011;26502;51.886;15.604;2023-05-29T01:30:46;3.70;;;2.30;;
40793;SDS011;26502;51.886;15.604;2023-05-29T01:35:53;5.40;;;2.40;;
40793;SDS011;26502;51.886;15.604;2023-05-29T01:40:59;4.00;;;2.10;;
40793;SDS011;26502;51.886;15.604;2023-05-29T01:46:07;1.70;;;1.60;;
40793;SDS011;26502;51.886;15.604;2023-05-29T01:51:13;2.20;;;2.00;;
40793;SDS011;26502;51.886;15.604;2023-05-29T01:56:21;4.70;;;2.10;;
40793;SDS011;26502;51.886;15.604;2023-05-29T02:01:29;2.80;;;2.10;;
40793;SDS011;26502;51.886;15.604;2023-05-29T02:06:35;6.20;;;2.40;;
40793;SDS011;26502;51.886;15.604;2023-05-29T02:11:41;4.30;;;2.20;;
40793;SDS011;26502;51.886;15.604;2023-05-29T02:16:48;4.30;;;2.40;;
40793;SDS011;26502;51.886;15.604;2023-05-29T02:21:54;3.50;;;2.10;;
40793;SDS011;26502;51.886;15.604;2023-05-29T02:27:00;4.30;;;2.50;;
40793;SDS011;26502;51.886;15.604;2023-05-29T02:32:07;4.00;;;2.30;;
40793;SDS011;26502;51.886;15.604;2023-05-29T02:37:13;6.40;;;3.20;;
40793;SDS011;26502;51.886;15.604;2023-05-29T02:42:19;5.60;;;3.00;;
40793;SDS011;26502;51.886;15.604;2023-05-29T02:47:25;6.00;;;3.50;;
40793;SDS011;26502;51.886;15.604;2023-05-29T02:52:31;6.70;;;2.90;;
40793;SDS011;26502;51.886;15.604;2023-05-29T02:57:37;7.30;;;3.20;;
40793;SDS011;26502;51.886;15.604;2023-05-29T03:02:43;6.70;;;3.40;;
40793;SDS011;26502;51.886;15.604;2023-05-29T03:07:49;5.20;;;3.30;;
40793;SDS011;26502;51.886;15.604;2023-05-29T03:12:55;7.40;;;3.40;;
40793;SDS011;26502;51.886;15.604;2023-05-29T03:18:01;6.50;;;3.30;;
40793;SDS011;26502;51.886;15.604;2023-05-29T03:23:08;4.00;;;2.60;;
40793;SDS011;26502;51.886;15.604;2023-05-29T03:28:14;4.40;;;2.80;;
40793;SDS011;26502;51.886;15.604;2023-05-29T03:33:20;3.50;;;3.00;;
40793;SDS011;26502;51.886;15.604;2023-05-29T03:38:43;7.70;;;3.10;;
40793;SDS011;26502;51.886;15.604;2023-05-29T03:43:49;9.60;;;4.00;;
40793;SDS011;26502;51.886;15.604;2023-05-29T03:48:56;6.50;;;3.10;;
40793;SDS011;26502;51.886;15.604;2023-05-29T03:54:02;6.60;;;3.40;;
40793;SDS011;26502;51.886;15.604;2023-05-29T03:59:09;5.50;;;3.40;;
40793;SDS011;26502;51.886;15.604;2023-05-29T04:04:15;6.80;;;2.90;;
40793;SDS011;26502;51.886;15.604;2023-05-29T04:09:21;4.70;;;3.20;;
40793;SDS011;26502;51.886;15.604;2023-05-29T04:14:27;4.00;;;2.90;;
40793;SDS011;26502;51.886;15.604;2023-05-29T04:19:32;6.00;;;3.40;;
40793;SDS011;26502;51.886;15.604;2023-05-29T04:24:38;7.00;;;3.20;;
40793;SDS011;26502;51.886;15.604;2023-05-29T04:29:44;4.30;;;3.20;;
40793;SDS011;26502;51.886;15.604;2023-05-29T04:34:50;6.50;;;3.00;;
40793;SDS011;26502;51.886;15.604;2023-05-29T04:39:56;4.30;;;3.00;;
40793;SDS011;26502;51.886;15.604;2023-05-29T04:45:03;4.20;;;3.10;;
40793;SDS011;26502;51.886;15.604;2023-05-29T04:50:13;5.70;;;3.80;;
40793;SDS011;26502;51.886;15.604;2023-05-29T04:55:21;6.50;;;3.10;;
40793;SDS011;26502;51.886;15.604;2023-05-29T05:00:27;4.50;;;2.80;;
40793;SDS011;26502;51.886;15.604;2023-05-29T05:05:33;4.50;;;3.00;;
40793;SDS011;26502;51.886;15.604;2023-05-29T05:10:39;4.50;;;3.20;;
40793;SDS011;26502;51.886;15.604;2023-05-29T05:15:45;5.80;;;3.40;;
40793;SDS011;26502;51.886;15.604;2023-05-29T05:20:51;6.60;;;3.20;;
40793;SDS011;26502;51.886;15.604;2023-05-29T05:25:56;7.90;;;4.40;;
40793;SDS011;26502;51.886;15.604;2023-05-29T05:31:02;7.30;;;4.00;;
40793;SDS011;26502;51.886;15.604;2023-05-29T05:36:09;5.50;;;3.90;;
40793;SDS011;26502;51.886;15.604;2023-05-29T05:41:16;11.00;;;4.80;;
40793;SDS011;26502;51.886;15.604;2023-05-29T05:46:22;8.30;;;4.50;;
40793;SDS011;26502;51.886;15.604;2023-05-29T05:51:28;12.80;;;4.70;;
40793;SDS011;26502;51.886;15.604;2023-05-29T05:56:34;9.00;;;5.40;;
40793;SDS011;26502;51.886;15.604;2023-05-29T06:01:40;11.30;;;4.60;;
40793;SDS011;26502;51.886;15.604;2023-05-29T06:06:46;9.40;;;4.90;;
40793;SDS011;26502;51.886;15.604;2023-05-29T06:11:52;12.00;;;4.10;;
40793;SDS011;26502;51.886;15.604;2023-05-29T06:16:59;11.20;;;4.10;;
40793;SDS011;26502;51.886;15.604;2023-05-29T06:22:06;11.70;;;3.70;;
40793;SDS011;26502;51.886;15.604;2023-05-29T06:27:13;9.20;;;3.80;;
40793;SDS011;26502;51.886;15.604;2023-05-29T06:32:20;9.20;;;3.80;;
40793;SDS011;26502;51.886;15.604;2023-05-29T06:37:27;10.20;;;4.50;;
40793;SDS011;26502;51.886;15.604;2023-05-29T06:42:33;8.30;;;3.80;;
40793;SDS011;26502;51.886;15.604;2023-05-29T06:47:43;9.30;;;3.90;;
40793;SDS011;26502;51.886;15.604;2023-05-29T06:52:49;8.60;;;3.80;;
40793;SDS011;26502;51.886;15.604;2023-05-29T06:58:11;6.90;;;4.30;;
40793;SDS011;26502;51.886;15.604;2023-05-29T07:03:18;7.70;;;3.50;;
40793;SDS011;26502;51.886;15.604;2023-05-29T07:08:24;9.60;;;3.60;;
40793;SDS011;26502;51.886;15.604;2023-05-29T07:13:31;11.20;;;4.00;;
40793;SDS011;26502;51.886;15.604;2023-05-29T07:18:38;9.90;;;3.70;;
40793;SDS011;26502;51.886;15.604;2023-05-29T07:23:44;12.20;;;4.40;;
40793;SDS011;26502;51.886;15.604;2023-05-29T07:28:50;11.00;;;3.80;;
40793;SDS011;26502;51.886;15.604;2023-05-29T07:33:56;8.30;;;3.70;;
40793;SDS011;26502;51.886;15.604;2023-05-29T07:39:02;13.10;;;4.30;;
40793;SDS011;26502;51.886;15.604;2023-05-29T07:44:10;8.20;;;3.60;;
40793;SDS011;26502;51.886;15.604;2023-05-29T07:49:16;6.50;;;3.50;;
40793;SDS011;26502;51.886;15.604;2023-05-29T07:54:23;9.90;;;3.50;;
40793;SDS011;26502;51.886;15.604;2023-05-29T07:59:30;6.80;;;3.60;;
40793;SDS011;26502;51.886;15.604;2023-05-29T08:04:36;7.80;;;3.60;;
40793;SDS011;26502;51.886;15.604;2023-05-29T08:09:42;8.40;;;3.50;;
40793;SDS011;26502;51.886;15.604;2023-05-29T08:14:48;8.30;;;3.40;;
40793;SDS011;26502;51.886;15.604;2023-05-29T08:19:55;7.70;;;2.80;;
40793;SDS011;26502;51.886;15.604;2023-05-29T08:25:00;9.50;;;3.70;;
40793;SDS011;26502;51.886;15.604;2023-05-29T08:30:07;8.70;;;4.00;;
40793;SDS011;26502;51.886;15.604;2023-05-29T08:35:15;7.30;;;3.30;;
40793;SDS011;26502;51.886;15.604;2023-05-29T08:40:21;7.50;;;3.30;;
40793;SDS011;26502;51.886;15.604;2023-05-29T08:45:27;7.50;;;2.80;;
40793;SDS011;26502;51.886;15.604;2023-05-29T08:50:38;5.90;;;3.50;;
40793;SDS011;26502;51.886;15.604;2023-05-29T08:55:49;7.60;;;3.20;;
40793;SDS011;26502;51.886;15.604;2023-05-29T09:00:56;9.70;;;3.00;;
40793;SDS011;26502;51.886;15.604;2023-05-29T09:06:03;9.60;;;3.60;;
40793;SDS011;26502;51.886;15.604;2023-05-29T09:11:10;4.60;;;2.70;;
40793;SDS011;26502;51.886;15.604;2023-05-29T09:16:16;8.30;;;3.10;;
40793;SDS011;26502;51.886;15.604;2023-05-29T09:21:26;4.90;;;2.70;;
40793;SDS011;26502;51.886;15.604;2023-05-29T09:26:32;7.50;;;3.20;;
40793;SDS011;26502;51.886;15.604;2023-05-29T09:31:40;4.10;;;2.50;;
40793;SDS011;26502;51.886;15.604;2023-05-29T09:36:51;7.20;;;2.90;;
40793;SDS011;26502;51.886;15.604;2023-05-29T09:41:59;6.90;;;2.90;;
40793;SDS011;26502;51.886;15.604;2023-05-29T09:47:05;5.70;;;3.20;;
40793;SDS011;26502;51.886;15.604;2023-05-29T09:52:12;9.70;;;3.80;;
40793;SDS011;26502;51.886;15.604;2023-05-29T09:57:18;7.10;;;3.10;;
40793;SDS011;26502;51.886;15.604;2023-05-29T10:02:26;7.20;;;3.30;;
40793;SDS011;26502;51.886;15.604;2023-05-29T10:07:32;4.50;;;3.00;;
40793;SDS011;26502;51.886;15.604;2023-05-29T10:12:41;7.00;;;2.70;;
40793;SDS011;26502;51.886;15.604;2023-05-29T10:17:54;5.60;;;2.90;;
40793;SDS011;26502;51.886;15.604;2023-05-29T10:23:05;9.20;;;3.20;;
40793;SDS011;26502;51.886;15.604;2023-05-29T10:28:12;6.60;;;2.80;;
40793;SDS011;26502;51.886;15.604;2023-05-29T10:33:24;6.50;;;3.70;;
40793;SDS011;26502;51.886;15.604;2023-05-29T10:38:49;4.70;;;3.00;;
40793;SDS011;26502;51.886;15.604;2023-05-29T10:43:56;8.30;;;2.90;;
40793;SDS011;26502;51.886;15.604;2023-05-29T10:49:02;5.10;;;2.70;;
40793;SDS011;26502;51.886;15.604;2023-05-29T10:54:21;7.90;;;3.30;;
40793;SDS011;26502;51.886;15.604;2023-05-29T10:59:29;7.00;;;3.60;;
40793;SDS011;26502;51.886;15.604;2023-05-29T11:04:40;6.60;;;3.10;;
40793;SDS011;26502;51.886;15.604;2023-05-29T11:09:47;8.00;;;3.10;;
40793;SDS011;26502;51.886;15.604;2023-05-29T11:14:54;8.90;;;3.10;;
40793;SDS011;26502;51.886;15.604;2023-05-29T11:20:05;6.10;;;3.60;;
40793;SDS011;26502;51.886;15.604;2023-05-29T11:25:13;10.00;;;3.80;;
40793;SDS011;26502;51.886;15.604;2023-05-29T11:30:20;7.70;;;3.20;;
40793;SDS011;26502;51.886;15.604;2023-05-29T11:35:26;6.00;;;3.00;;
40793;SDS011;26502;51.886;15.604;2023-05-29T11:40:36;5.60;;;2.60;;
40793;SDS011;26502;51.886;15.604;2023-05-29T11:45:42;7.10;;;2.60;;
40793;SDS011;26502;51.886;15.604;2023-05-29T11:50:48;12.70;;;2.80;;
40793;SDS011;26502;51.886;15.604;2023-05-29T11:56:06;7.60;;;3.30;;
40793;SDS011;26502;51.886;15.604;2023-05-29T12:01:16;5.60;;;3.20;;
40793;SDS011;26502;51.886;15.604;2023-05-29T12:06:33;4.90;;;2.80;;
40793;SDS011;26502;51.886;15.604;2023-05-29T12:11:41;4.30;;;2.70;;
40793;SDS011;26502;51.886;15.604;2023-05-29T12:16:47;13.80;;;3.00;;
40793;SDS011;26502;51.886;15.604;2023-05-29T12:21:53;4.70;;;2.90;;
40793;SDS011;26502;51.886;15.604;2023-05-29T12:27:00;5.80;;;2.80;;
40793;SDS011;26502;51.886;15.604;2023-05-29T12:32:11;25.80;;;3.50;;
40793;SDS011;26502;51.886;15.604;2023-05-29T12:37:20;4.60;;;3.10;;
40793;SDS011;26502;51.886;15.604;2023-05-29T12:42:28;5.80;;;2.60;;
40793;SDS011;26502;51.886;15.604;2023-05-29T12:47:34;6.40;;;2.90;;
40793;SDS011;26502;51.886;15.604;2023-05-29T12:52:41;4.50;;;2.60;;
40793;SDS011;26502;51.886;15.604;2023-05-29T12:57:47;4.70;;;2.90;;
40793;SDS011;26502;51.886;15.604;2023-05-29T13:02:53;9.30;;;3.50;;
40793;SDS011;26502;51.886;15.604;2023-05-29T13:08:01;5.20;;;2.90;;
40793;SDS011;26502;51.886;15.604;2023-05-29T13:13:08;6.10;;;3.30;;
40793;SDS011;26502;51.886;15.604;2023-05-29T13:18:15;3.90;;;2.60;;
40793;SDS011;26502;51.886;15.604;2023-05-29T13:23:21;5.60;;;3.10;;
40793;SDS011;26502;51.886;15.604;2023-05-29T13:28:27;4.20;;;3.10;;
40793;SDS011;26502;51.886;15.604;2023-05-29T13:33:33;3.70;;;2.90;;
40793;SDS011;26502;51.886;15.604;2023-05-29T13:38:39;5.60;;;2.80;;
40793;SDS011;26502;51.886;15.604;2023-05-29T13:43:47;5.70;;;3.20;;
40793;SDS011;26502;51.886;15.604;2023-05-29T13:48:52;8.40;;;2.90;;
40793;SDS011;26502;51.886;15.604;2023-05-29T13:53:59;9.50;;;2.60;;
40793;SDS011;26502;51.886;15.604;2023-05-29T13:59:05;7.60;;;3.10;;
40793;SDS011;26502;51.886;15.604;2023-05-29T14:04:11;4.30;;;2.90;;
40793;SDS011;26502;51.886;15.604;2023-05-29T14:09:17;6.00;;;3.10;;
40793;SDS011;26502;51.886;15.604;2023-05-29T14:14:29;5.10;;;3.10;;
40793;SDS011;26502;51.886;15.604;2023-05-29T14:19:36;8.40;;;3.30;;
40793;SDS011;26502;51.886;15.604;2023-05-29T14:24:42;7.00;;;2.90;;
40793;SDS011;26502;51.886;15.604;2023-05-29T14:29:48;5.70;;;3.00;;
40793;SDS011;26502;51.886;15.604;2023-05-29T14:34:54;4.20;;;2.70;;
40793;SDS011;26502;51.886;15.604;2023-05-29T14:40:01;4.20;;;3.00;;
40793;SDS011;26502;51.886;15.604;2023-05-29T14:45:08;3.90;;;2.50;;
40793;SDS011;26502;51.886;15.604;2023-05-29T14:50:14;4.70;;;3.00;;
40793;SDS011;26502;51.886;15.604;2023-05-29T14:55:20;4.00;;;2.60;;
40793;SDS011;26502;51.886;15.604;2023-05-29T15:00:26;4.10;;;2.50;;
40793;SDS011;26502;51.886;15.604;2023-05-29T15:05:32;4.40;;;2.50;;
40793;SDS011;26502;51.886;15.604;2023-05-29T15:10:38;5.00;;;2.50;;
40793;SDS011;26502;51.886;15.604;2023-05-29T15:15:44;3.70;;;2.20;;
40793;SDS011;26502;51.886;15.604;2023-05-29T15:20:50;4.10;;;2.40;;
40793;SDS011;26502;51.886;15.604;2023-05-29T15:25:56;5.30;;;2.40;;
40793;SDS011;26502;51.886;15.604;2023-05-29T15:31:02;3.30;;;2.30;;
40793;SDS011;26502;51.886;15.604;2023-05-29T15:36:09;2.60;;;2.20;;
40793;SDS011;26502;51.886;15.604;2023-05-29T15:41:15;8.50;;;2.70;;
40793;SDS011;26502;51.886;15.604;2023-05-29T15:46:21;7.70;;;2.20;;
40793;SDS011;26502;51.886;15.604;2023-05-29T15:51:27;4.10;;;2.50;;
40793;SDS011;26502;51.886;15.604;2023-05-29T15:56:33;4.50;;;2.10;;
40793;SDS011;26502;51.886;15.604;2023-05-29T16:01:39;3.10;;;2.30;;
40793;SDS011;26502;51.886;15.604;2023-05-29T16:06:45;3.70;;;2.20;;
40793;SDS011;26502;51.886;15.604;2023-05-29T16:11:51;3.20;;;2.10;;
40793;SDS011;26502;51.886;15.604;2023-05-29T16:16:58;5.40;;;2.40;;
40793;SDS011;26502;51.886;15.604;2023-05-29T16:22:04;3.20;;;2.30;;
40793;SDS011;26502;51.886;15.604;2023-05-29T16:27:10;3.40;;;2.10;;
40793;SDS011;26502;51.886;15.604;2023-05-29T16:32:16;4.50;;;2.00;;
40793;SDS011;26502;51.886;15.604;2023-05-29T16:37:23;7.10;;;2.50;;
40793;SDS011;26502;51.886;15.604;2023-05-29T16:42:29;4.00;;;2.40;;
40793;SDS011;26502;51.886;15.604;2023-05-29T16:47:35;5.50;;;2.10;;
40793;SDS011;26502;51.886;15.604;2023-05-29T16:52:41;7.20;;;2.40;;
40793;SDS011;26502;51.886;15.604;2023-05-29T16:57:47;2.80;;;2.10;;
40793;SDS011;26502;51.886;15.604;2023-05-29T17:02:53;3.40;;;2.20;;
40793;SDS011;26502;51.886;15.604;2023-05-29T17:07:59;2.70;;;2.30;;
40793;SDS011;26502;51.886;15.604;2023-05-29T17:13:05;4.40;;;2.40;;
40793;SDS011;26502;51.886;15.604;2023-05-29T17:18:12;3.50;;;2.20;;
40793;SDS011;26502;51.886;15.604;2023-05-29T17:23:17;3.10;;;2.00;;
40793;SDS011;26502;51.886;15.604;2023-05-29T17:28:23;4.80;;;2.30;;
40793;SDS011;26502;51.886;15.604;2023-05-29T17:33:29;4.30;;;2.40;;
40793;SDS011;26502;51.886;15.604;2023-05-29T17:38:35;7.80;;;2.50;;
40793;SDS011;26502;51.886;15.604;2023-05-29T17:43:41;3.00;;;2.60;;
40793;SDS011;26502;51.886;15.604;2023-05-29T17:48:47;2.20;;;2.00;;
40793;SDS011;26502;51.886;15.604;2023-05-29T17:53:54;4.40;;;2.40;;
40793;SDS011;26502;51.886;15.604;2023-05-29T17:59:00;5.10;;;2.20;;
40793;SDS011;26502;51.886;15.604;2023-05-29T18:04:06;3.60;;;2.50;;
40793;SDS011;26502;51.886;15.604;2023-05-29T18:09:12;3.30;;;2.10;;
40793;SDS011;26502;51.886;15.604;2023-05-29T18:14:18;4.10;;;2.40;;
40793;SDS011;26502;51.886;15.604;2023-05-29T18:19:24;4.60;;;2.30;;
40793;SDS011;26502;51.886;15.604;2023-05-29T18:24:30;3.70;;;2.40;;
40793;SDS011;26502;51.886;15.604;2023-05-29T18:29:36;3.50;;;2.20;;
40793;SDS011;26502;51.886;15.604;2023-05-29T18:34:42;4.10;;;2.90;;
40793;SDS011;26502;51.886;15.604;2023-05-29T18:39:49;20.20;;;2.80;;
40793;SDS011;26502;51.886;15.604;2023-05-29T18:44:55;12.30;;;2.70;;
40793;SDS011;26502;51.886;15.604;2023-05-29T18:50:01;14.60;;;3.40;;
40793;SDS011;26502;51.886;15.604;2023-05-29T18:55:08;13.00;;;3.30;;
40793;SDS011;26502;51.886;15.604;2023-05-29T19:00:15;6.80;;;2.40;;
40793;SDS011;26502;51.886;15.604;2023-05-29T19:05:23;6.80;;;2.80;;
40793;SDS011;26502;51.886;15.604;2023-05-29T19:10:29;5.50;;;2.60;;
40793;SDS011;26502;51.886;15.604;2023-05-29T19:15:35;6.00;;;2.70;;
40793;SDS011;26502;51.886;15.604;2023-05-29T19:20:42;33.20;;;4.10;;
40793;SDS011;26502;51.886;15.604;2023-05-29T19:25:48;13.40;;;3.60;;
40793;SDS011;26502;51.886;15.604;2023-05-29T19:30:55;5.60;;;2.60;;
40793;SDS011;26502;51.886;15.604;2023-05-29T19:36:01;4.80;;;2.70;;
40793;SDS011;26502;51.886;15.604;2023-05-29T19:41:07;10.00;;;3.00;;
40793;SDS011;26502;51.886;15.604;2023-05-29T19:46:13;14.70;;;3.10;;
40793;SDS011;26502;51.886;15.604;2023-05-29T19:51:19;6.20;;;2.90;;
40793;SDS011;26502;51.886;15.604;2023-05-29T19:56:25;6.20;;;3.10;;
40793;SDS011;26502;51.886;15.604;2023-05-29T20:01:31;8.10;;;2.90;;
40793;SDS011;26502;51.886;15.604;2023-05-29T20:06:38;9.70;;;2.90;;
40793;SDS011;26502;51.886;15.604;2023-05-29T20:11:44;6.10;;;2.60;;
40793;SDS011;26502;51.886;15.604;2023-05-29T20:16:50;5.50;;;3.00;;
40793;SDS011;26502;51.886;15.604;2023-05-29T20:21:56;5.60;;;3.30;;
40793;SDS011;26502;51.886;15.604;2023-05-29T20:27:02;4.20;;;2.90;;
40793;SDS011;26502;51.886;15.604;2023-05-29T20:32:09;4.30;;;2.60;;
40793;SDS011;26502;51.886;15.604;2023-05-29T20:37:15;4.70;;;3.00;;
40793;SDS011;26502;51.886;15.604;2023-05-29T20:42:22;5.50;;;3.20;;
40793;SDS011;26502;51.886;15.604;2023-05-29T20:47:28;7.20;;;3.20;;
40793;SDS011;26502;51.886;15.604;2023-05-29T20:52:35;6.90;;;3.30;;
40793;SDS011;26502;51.886;15.604;2023-05-29T20:57:41;4.90;;;3.00;;
40793;SDS011;26502;51.886;15.604;2023-05-29T21:02:47;5.00;;;3.00;;
40793;SDS011;26502;51.886;15.604;2023-05-29T21:07:54;8.30;;;3.60;;
40793;SDS011;26502;51.886;15.604;2023-05-29T21:13:00;4.90;;;3.50;;
40793;SDS011;26502;51.886;15.604;2023-05-29T21:18:07;5.30;;;3.70;;
40793;SDS011;26502;51.886;15.604;2023-05-29T21:23:13;6.30;;;3.40;;
40793;SDS011;26502;51.886;15.604;2023-05-29T21:28:19;6.20;;;3.30;;
40793;SDS011;26502;51.886;15.604;2023-05-29T21:33:25;6.90;;;3.40;;
40793;SDS011;26502;51.886;15.604;2023-05-29T21:38:31;7.50;;;3.40;;
40793;SDS011;26502;51.886;15.604;2023-05-29T21:43:38;4.60;;;2.80;;
40793;SDS011;26502;51.886;15.604;2023-05-29T21:48:45;10.70;;;3.70;;
40793;SDS011;26502;51.886;15.604;2023-05-29T21:53:51;8.80;;;3.20;;
40793;SDS011;26502;51.886;15.604;2023-05-29T21:58:57;6.50;;;3.20;;
40793;SDS011;26502;51.886;15.604;2023-05-29T22:04:03;9.20;;;3.50;;
40793;SDS011;26502;51.886;15.604;2023-05-29T22:09:09;7.60;;;3.20;;
40793;SDS011;26502;51.886;15.604;2023-05-29T22:14:15;7.90;;;3.30;;
40793;SDS011;26502;51.886;15.604;2023-05-29T22:19:21;9.80;;;3.50;;
40793;SDS011;26502;51.886;15.604;2023-05-29T22:24:28;9.10;;;2.70;;
40793;SDS011;26502;51.886;15.604;2023-05-29T22:29:34;4.90;;;2.50;;
40793;SDS011;26502;51.886;15.604;2023-05-29T22:34:40;6.40;;;3.40;;
40793;SDS011;26502;51.886;15.604;2023-05-29T22:39:46;7.10;;;2.90;;
40793;SDS011;26502;51.886;15.604;2023-05-29T22:44:51;9.30;;;2.90;;
40793;SDS011;26502;51.886;15.604;2023-05-29T22:49:57;6.00;;;2.80;;
40793;SDS011;26502;51.886;15.604;2023-05-29T22:55:03;8.60;;;3.00;;
40793;SDS011;26502;51.886;15.604;2023-05-29T23:00:11;7.90;;;3.30;;
40793;SDS011;26502;51.886;15.604;2023-05-29T23:05:17;5.70;;;2.80;;
40793;SDS011;26502;51.886;15.604;2023-05-29T23:10:23;9.80;;;2.90;;
40793;SDS011;26502;51.886;15.604;2023-05-29T23:15:29;6.10;;;3.20;;
40793;SDS011;26502;51.886;15.604;2023-05-29T23:20:35;15.20;;;3.30;;
40793;SDS011;26502;51.886;15.604;2023-05-29T23:25:41;8.30;;;2.70;;
40793;SDS011;26502;51.886;15.604;2023-05-29T23:30:49;6.50;;;2.80;;
40793;SDS011;26502;51.886;15.604;2023-05-29T23:35:55;6.30;;;2.80;;
40793;SDS011;26502;51.886;15.604;2023-05-29T23:41:01;7.90;;;2.70;;
40793;SDS011;26502;51.886;15.604;2023-05-29T23:46:07;6.70;;;2.70;;
40793;SDS011;26502;51.886;15.604;2023-05-29T23:51:13;13.60;;;4.50;;
40793;SDS011;26502;51.886;15.604;2023-05-29T23:56:19;9.20;;;3.10;;
